Portada
METAR-TAF:

METAR-TAF

Aeropuertos :

Southern Wisconsin Regional Airport

Janesville, Wisconsin, Estados Unidos

latitud: 42-37N, longitud: 089-02W, altitud: 246 m

Observación

El informe se hizo hace 35 minutos, a las 07:35 UTC
Viento 4 kt del este-noreste
Temperatura 8°C
Humedad 81%
Presión 1027 hPa
Visibilidad: 16.1 km
Cielo despejado

METAR: KJVL 310735Z AUTO 06004KT 10SM CLR 08/05 A3032 RMK AO2

Hora: 03:10 (08:10 UTC)


TAF: falta

Observaciones y pronósticos meteorológicos de más de 4000 aeropuertos (mensajes METAR y TAF).

Los puntos amarillos y rojos representan las estaciones disponibles.

Ponga el ratón en el punto deseado para ver el nombre de la estación.

Haga clic para ver las observaciones y los pronósticos meteorológicos.

Para cambiar el mapa : haga clic en los botones verdes con una cruz de color negro para hacer un zoom, en el botón verde con un guión para alejar o en las flechas verdes para mapas adyacentes.


METAR-TAF: